Time;durP1;ratioP1;P1;durP2;ratioP2;P2;SDS_P1;SDS_P2;PMS_P1;PMS_P2;Temp;Humidity;BMP_temperature;BMP_pressure;BME280_temperature;BME280_humidity;BME280_pressure;Samples;Min_cycle;Max_cycle;Signal;HPM_P1;HPM_P2
2023/11/26 00:00:00;;;;;;;17.23;5.38;;;;;;;;;;690219;28;818;-67
2023/11/26 00:00:21;;;;;;;17.63;5.70;;;;;;;;;;689992;28;951;-67
2023/11/26 00:00:43;;;;;;;14.52;5.57;;;;;;;;;;690690;28;835;-67
2023/11/26 00:01:04;;;;;;;13.60;6.07;;;;;;;;;;688628;28;5009;-66
2023/11/26 00:01:25;;;;;;;12.13;5.80;;;;;;;;;;689303;28;1275;-67
2023/11/26 00:01:45;;;;;;;11.88;5.30;;;;;;;;;;690875;28;797;-67
2023/11/26 00:02:05;;;;;;;13.07;5.50;;;;;;;;;;690331;28;880;-67
2023/11/26 00:02:26;;;;;;;10.97;5.60;;;;;;;;;;690195;28;990;-67
2023/11/26 00:02:46;;;;;;;10.40;5.47;;;;;;;;;;690849;28;1514;-67
2023/11/26 00:03:06;;;;;;;12.33;5.63;;;;;;;;;;689174;28;1362;-67
2023/11/26 00:03:26;;;;;;;11.65;5.88;;;;;;;;;;689592;28;1105;-67
2023/11/26 00:03:47;;;;;;;11.47;5.53;;;;;;;;;;690407;28;4391;-67
2023/11/26 00:04:08;;;;;;;12.53;5.60;;;;;;;;;;690505;28;931;-67
2023/11/26 00:04:29;;;;;;;13.13;6.30;;;;;;;;;;688755;28;1225;-67
2023/11/26 00:04:50;;;;;;;11.98;5.50;;;;;;;;;;689567;28;945;-67
2023/11/26 00:05:11;;;;;;;11.18;5.65;;;;;;;;;;689237;28;891;-68
2023/11/26 00:05:32;;;;;;;10.57;5.63;;;;;;;;;;690531;28;966;-67
2023/11/26 00:05:52;;;;;;;10.68;5.30;;;;;;;;;;689454;28;1252;-67
2023/11/26 00:06:13;;;;;;;13.43;5.67;;;;;;;;;;689070;28;945;-68
2023/11/26 00:06:34;;;;;;;13.63;6.13;;;;;;;;;;690520;28;1214;-67
2023/11/26 00:06:55;;;;;;;12.73;5.90;;;;;;;;;;690397;28;4307;-68
2023/11/26 00:07:16;;;;;;;11.43;5.60;;;;;;;;;;690025;28;909;-68
2023/11/26 00:07:37;;;;;;;10.13;5.47;;;;;;;;;;690330;28;1209;-67
2023/11/26 00:07:59;;;;;;;10.77;5.25;;;;;;;;;;690773;28;853;-67
2023/11/26 00:08:20;;;;;;;11.40;5.50;;;;;;;;;;689048;28;1350;-67
2023/11/26 00:08:41;;;;;;;11.73;5.78;;;;;;;;;;690682;28;899;-68
2023/11/26 00:09:01;;;;;;;13.57;5.83;;;;;;;;;;689915;28;1342;-67
2023/11/26 00:09:23;;;;;;;11.57;5.75;;;;;;;;;;688763;28;1116;-67
2023/11/26 00:09:43;;;;;;;14.20;6.05;;;;;;;;;;690358;28;4282;-68
2023/11/26 00:10:04;;;;;;;12.75;6.20;;;;;;;;;;690540;28;1209;-67
2023/11/26 00:10:24;;;;;;;13.30;6.53;;;;;;;;;;688582;28;1148;-68
2023/11/26 00:10:45;;;;;;;11.48;5.90;;;;;;;;;;689297;28;1286;-67
2023/11/26 00:11:05;;;;;;;13.88;5.65;;;;;;;;;;689222;28;928;-67
2023/11/26 00:11:25;;;;;;;15.03;5.77;;;;;;;;;;687919;28;925;-67
2023/11/26 00:11:46;;;;;;;10.87;5.53;;;;;;;;;;688268;28;1458;-67
2023/11/26 00:12:09;;;;;;;10.05;5.70;;;;;;;;;;691021;28;805;-67
2023/11/26 00:12:29;;;;;;;9.00;5.53;;;;;;;;;;689826;28;1342;-67
2023/11/26 00:12:50;;;;;;;10.30;5.70;;;;;;;;;;690201;28;4256;-67
2023/11/26 00:13:10;;;;;;;12.45;5.97;;;;;;;;;;689594;28;1411;-67
2023/11/26 00:13:30;;;;;;;13.40;5.40;;;;;;;;;;691058;28;847;-67
2023/11/26 00:13:50;;;;;;;13.30;5.23;;;;;;;;;;690444;28;2684;-68
2023/11/26 00:14:11;;;;;;;13.13;5.55;;;;;;;;;;686907;28;1152;-67
2023/11/26 00:14:31;;;;;;;11.30;5.23;;;;;;;;;;687526;28;1022;-67
2023/11/26 00:14:52;;;;;;;11.35;5.50;;;;;;;;;;684522;28;1386;-67
2023/11/26 00:15:13;;;;;;;10.03;5.23;;;;;;;;;;684691;28;892;-67
2023/11/26 00:15:34;;;;;;;9.75;5.13;;;;;;;;;;685925;28;833;-68
2023/11/26 00:15:54;;;;;;;10.83;5.20;;;;;;;;;;684673;28;4414;-67
2023/11/26 00:16:14;;;;;;;11.83;5.20;;;;;;;;;;686932;28;1304;-67
2023/11/26 00:16:36;;;;;;;8.77;4.90;;;;;;;;;;689293;28;1358;-67
2023/11/26 00:16:56;;;;;;;8.63;5.05;;;;;;;;;;688568;28;987;-68
2023/11/26 00:17:20;;;;;;;11.02;5.28;;;;;;;;;;688730;28;991;-67
2023/11/26 00:17:40;;;;;;;11.05;5.13;;;;;;;;;;690106;28;1969;-67
2023/11/26 00:18:00;;;;;;;11.13;5.13;;;;;;;;;;690230;28;1319;-67
2023/11/26 00:18:21;;;;;;;12.77;5.27;;;;;;;;;;689611;28;1052;-67
2023/11/26 00:18:41;;;;;;;11.40;5.22;;;;;;;;;;690322;28;876;-67
2023/11/26 00:19:01;;;;;;;13.63;5.20;;;;;;;;;;689499;28;4719;-68
2023/11/26 00:19:21;;;;;;;13.47;5.47;;;;;;;;;;690033;28;1013;-67
2023/11/26 00:19:42;;;;;;;10.90;5.33;;;;;;;;;;690378;28;1152;-67
2023/11/26 00:20:02;;;;;;;10.37;5.37;;;;;;;;;;690963;28;1516;-68
2023/11/26 00:20:23;;;;;;;10.93;5.00;;;;;;;;;;689099;28;1280;-67
2023/11/26 00:20:44;;;;;;;12.75;5.20;;;;;;;;;;690624;28;883;-67
2023/11/26 00:21:04;;;;;;;14.27;5.20;;;;;;;;;;687458;28;1319;-67
2023/11/26 00:21:24;;;;;;;12.23;5.40;;;;;;;;;;688097;28;1203;-66
2023/11/26 00:21:45;;;;;;;11.57;5.67;;;;;;;;;;686193;28;4454;-67
2023/11/26 00:22:05;;;;;;;12.60;5.70;;;;;;;;;;687027;28;798;-67
2023/11/26 00:22:28;;;;;;;10.55;5.15;;;;;;;;;;690650;28;1081;-67
2023/11/26 00:22:48;;;;;;;15.52;5.85;;;;;;;;;;689412;28;1370;-67
2023/11/26 00:23:08;;;;;;;15.17;5.90;;;;;;;;;;690179;28;858;-67
2023/11/26 00:23:29;;;;;;;11.77;5.30;;;;;;;;;;690097;28;1200;-67
2023/11/26 00:23:49;;;;;;;9.32;4.95;;;;;;;;;;690417;28;968;-67
2023/11/26 00:24:09;;;;;;;13.20;5.00;;;;;;;;;;690042;28;1076;-67
2023/11/26 00:24:29;;;;;;;13.53;4.90;;;;;;;;;;689042;28;1540;-67
2023/11/26 00:24:50;;;;;;;11.25;5.05;;;;;;;;;;689704;28;4352;-67
2023/11/26 00:25:10;;;;;;;11.60;5.23;;;;;;;;;;689716;28;1083;-68
2023/11/26 00:25:30;;;;;;;9.80;4.77;;;;;;;;;;690601;28;897;-67
2023/11/26 00:25:51;;;;;;;9.10;5.18;;;;;;;;;;690052;28;896;-67
2023/11/26 00:26:11;;;;;;;12.23;5.37;;;;;;;;;;689258;28;1651;-67
2023/11/26 00:26:33;;;;;;;12.00;5.05;;;;;;;;;;687797;28;1276;-67
2023/11/26 00:26:55;;;;;;;10.00;5.13;;;;;;;;;;684962;28;1272;-68
2023/11/26 00:27:16;;;;;;;10.00;5.33;;;;;;;;;;686429;28;1338;-68
2023/11/26 00:27:36;;;;;;;13.17;5.40;;;;;;;;;;687674;28;1232;-67
2023/11/26 00:27:57;;;;;;;10.20;5.13;;;;;;;;;;686842;28;4430;-68
2023/11/26 00:28:17;;;;;;;9.47;5.20;;;;;;;;;;687349;28;892;-68
2023/11/26 00:28:38;;;;;;;11.70;5.17;;;;;;;;;;689725;28;1227;-67
2023/11/26 00:28:58;;;;;;;12.80;5.27;;;;;;;;;;684688;28;897;-67
2023/11/26 00:29:19;;;;;;;12.03;5.17;;;;;;;;;;683913;28;1462;-68
2023/11/26 00:29:42;;;;;;;14.05;5.43;;;;;;;;;;685081;28;956;-68
2023/11/26 00:30:03;;;;;;;11.43;5.35;;;;;;;;;;686886;28;952;-68
2023/11/26 00:30:23;;;;;;;11.13;5.60;;;;;;;;;;686603;28;1051;-68
2023/11/26 00:30:44;;;;;;;13.70;5.80;;;;;;;;;;689061;28;4356;-67
2023/11/26 00:31:04;;;;;;;14.20;6.07;;;;;;;;;;690193;28;1748;-68
2023/11/26 00:31:25;;;;;;;14.63;5.80;;;;;;;;;;689276;28;1142;-68
2023/11/26 00:31:45;;;;;;;11.32;5.60;;;;;;;;;;687803;28;948;-67
2023/11/26 00:32:07;;;;;;;12.10;5.50;;;;;;;;;;687744;28;1515;-67
2023/11/26 00:32:27;;;;;;;12.45;5.50;;;;;;;;;;682861;28;1154;-68
2023/11/26 00:32:48;;;;;;;12.90;5.90;;;;;;;;;;685000;28;1473;-67
2023/11/26 00:33:08;;;;;;;13.57;5.93;;;;;;;;;;682544;29;890;-67
2023/11/26 00:33:29;;;;;;;16.03;6.00;;;;;;;;;;681268;28;889;-67
2023/11/26 00:33:49;;;;;;;14.80;5.87;;;;;;;;;;681553;28;4298;-67
2023/11/26 00:34:09;;;;;;;12.60;5.30;;;;;;;;;;681354;28;1479;-67
2023/11/26 00:34:30;;;;;;;13.33;5.70;;;;;;;;;;678594;29;1176;-68
2023/11/26 00:34:50;;;;;;;12.75;5.28;;;;;;;;;;681169;28;941;-67
2023/11/26 00:35:12;;;;;;;13.97;5.47;;;;;;;;;;683630;28;1173;-68
2023/11/26 00:35:32;;;;;;;11.60;5.65;;;;;;;;;;684278;28;1228;-67
2023/11/26 00:35:52;;;;;;;12.23;5.10;;;;;;;;;;683099;28;766;-67
2023/11/26 00:36:14;;;;;;;10.43;5.17;;;;;;;;;;686224;28;936;-67
2023/11/26 00:36:35;;;;;;;10.48;5.60;;;;;;;;;;685395;28;991;-68
2023/11/26 00:36:55;;;;;;;11.73;6.00;;;;;;;;;;687278;28;4316;-67
2023/11/26 00:37:16;;;;;;;15.80;5.82;;;;;;;;;;685639;28;1490;-67
2023/11/26 00:37:36;;;;;;;13.23;5.50;;;;;;;;;;690223;28;1918;-68
2023/11/26 00:37:56;;;;;;;10.77;5.30;;;;;;;;;;690137;28;848;-67
2023/11/26 00:38:16;;;;;;;11.73;5.68;;;;;;;;;;689137;28;941;-67
2023/11/26 00:38:37;;;;;;;12.87;5.80;;;;;;;;;;690264;28;1335;-67
2023/11/26 00:38:57;;;;;;;13.33;6.00;;;;;;;;;;686689;28;5664;-67
2023/11/26 00:39:17;;;;;;;12.98;6.20;;;;;;;;;;686652;28;925;-68
2023/11/26 00:39:37;;;;;;;12.87;6.37;;;;;;;;;;687933;28;990;-67
2023/11/26 00:39:58;;;;;;;12.17;5.80;;;;;;;;;;686878;28;4341;-68
2023/11/26 00:40:24;;;;;;;13.80;5.77;;;;;;;;;;682502;28;1899;-67
2023/11/26 00:40:45;;;;;;;14.05;5.68;;;;;;;;;;684514;28;917;-67
2023/11/26 00:41:05;;;;;;;14.63;5.43;;;;;;;;;;686372;28;897;-67
2023/11/26 00:41:26;;;;;;;14.43;5.70;;;;;;;;;;685174;28;1130;-67
2023/11/26 00:41:46;;;;;;;14.93;5.93;;;;;;;;;;685896;28;873;-68
2023/11/26 00:42:07;;;;;;;14.13;6.03;;;;;;;;;;686121;28;1359;-67
2023/11/26 00:42:27;;;;;;;14.40;5.95;;;;;;;;;;689402;28;931;-66
2023/11/26 00:42:48;;;;;;;13.45;5.20;;;;;;;;;;689851;28;4278;-67
2023/11/26 00:43:09;;;;;;;14.90;5.20;;;;;;;;;;687364;28;1138;-67
2023/11/26 00:43:29;;;;;;;18.35;6.15;;;;;;;;;;689672;28;1142;-67
2023/11/26 00:43:49;;;;;;;17.38;6.53;;;;;;;;;;689521;28;1386;-67
2023/11/26 00:44:10;;;;;;;15.30;5.77;;;;;;;;;;690048;28;1211;-67
2023/11/26 00:44:31;;;;;;;12.43;5.72;;;;;;;;;;689656;28;1366;-67
2023/11/26 00:44:52;;;;;;;11.15;5.63;;;;;;;;;;690048;28;975;-67
2023/11/26 00:45:12;;;;;;;12.80;5.18;;;;;;;;;;688644;28;1319;-68
2023/11/26 00:45:32;;;;;;;12.93;5.67;;;;;;;;;;690482;28;1301;-67
2023/11/26 00:45:53;;;;;;;13.00;6.20;;;;;;;;;;690002;28;4304;-67
2023/11/26 00:46:13;;;;;;;12.80;5.50;;;;;;;;;;688960;28;1114;-68
2023/11/26 00:46:33;;;;;;;11.20;5.80;;;;;;;;;;689851;28;2496;-67
2023/11/26 00:46:54;;;;;;;12.90;6.00;;;;;;;;;;690432;28;1012;-67
2023/11/26 00:47:14;;;;;;;11.65;5.80;;;;;;;;;;688725;28;1222;-67
2023/11/26 00:47:34;;;;;;;12.03;5.50;;;;;;;;;;690224;28;1267;-67
2023/11/26 00:47:55;;;;;;;14.47;6.10;;;;;;;;;;690384;28;790;-67
2023/11/26 00:48:16;;;;;;;15.30;6.57;;;;;;;;;;689184;28;987;-68
2023/11/26 00:48:37;;;;;;;15.73;6.47;;;;;;;;;;687496;28;1240;-67
2023/11/26 00:48:57;;;;;;;15.35;6.03;;;;;;;;;;686425;28;4342;-67
2023/11/26 00:49:17;;;;;;;13.10;6.10;;;;;;;;;;686614;28;1169;-67
2023/11/26 00:49:37;;;;;;;16.58;6.60;;;;;;;;;;687680;28;1749;-67
2023/11/26 00:50:01;;;;;;;15.50;6.50;;;;;;;;;;687771;28;935;-67
2023/11/26 00:50:22;;;;;;;13.00;6.45;;;;;;;;;;683704;28;1404;-68
2023/11/26 00:50:42;;;;;;;12.85;5.80;;;;;;;;;;684437;28;1301;-67
2023/11/26 00:51:07;;;;;;;13.85;5.70;;;;;;;;;;684236;28;939;-66
2023/11/26 00:51:27;;;;;;;14.35;5.70;;;;;;;;;;683805;28;904;-67
2023/11/26 00:51:47;;;;;;;11.10;5.18;;;;;;;;;;685759;28;5432;-67
2023/11/26 00:52:07;;;;;;;12.23;5.33;;;;;;;;;;685311;28;1145;-68
2023/11/26 00:52:28;;;;;;;12.33;5.30;;;;;;;;;;687536;28;1210;-67
2023/11/26 00:52:48;;;;;;;14.02;5.13;;;;;;;;;;690571;28;990;-67
2023/11/26 00:53:09;;;;;;;12.60;5.38;;;;;;;;;;690072;28;781;-67
2023/11/26 00:53:29;;;;;;;12.60;5.47;;;;;;;;;;689083;28;1182;-68
2023/11/26 00:53:49;;;;;;;16.97;5.83;;;;;;;;;;690348;28;1023;-67
2023/11/26 00:54:10;;;;;;;17.83;5.95;;;;;;;;;;690653;28;1265;-67
2023/11/26 00:54:30;;;;;;;14.67;5.50;;;;;;;;;;689597;28;1243;-67
2023/11/26 00:54:52;;;;;;;12.43;5.60;;;;;;;;;;689340;28;4406;-67
2023/11/26 00:55:13;;;;;;;13.50;5.90;;;;;;;;;;688523;28;1029;-68
2023/11/26 00:55:33;;;;;;;13.97;5.40;;;;;;;;;;690096;28;1209;-67
2023/11/26 00:55:53;;;;;;;11.18;5.47;;;;;;;;;;689132;28;1263;-67
2023/11/26 00:56:14;;;;;;;12.30;5.77;;;;;;;;;;689253;28;1273;-68
2023/11/26 00:56:34;;;;;;;14.68;5.60;;;;;;;;;;690268;28;813;-68
2023/11/26 00:56:55;;;;;;;15.13;5.57;;;;;;;;;;690232;28;1878;-67
2023/11/26 00:57:15;;;;;;;17.63;5.63;;;;;;;;;;688454;28;983;-67
2023/11/26 00:57:36;;;;;;;14.43;5.60;;;;;;;;;;689856;28;2003;-67
2023/11/26 00:57:57;;;;;;;12.73;5.45;;;;;;;;;;688569;28;4249;-67
2023/11/26 00:58:19;;;;;;;14.10;5.38;;;;;;;;;;689579;28;880;-67
2023/11/26 00:58:39;;;;;;;12.63;5.30;;;;;;;;;;690473;28;1011;-68
2023/11/26 00:58:59;;;;;;;11.10;5.27;;;;;;;;;;689394;28;1382;-67
2023/11/26 00:59:20;;;;;;;11.98;5.47;;;;;;;;;;688885;28;1654;-67
2023/11/26 00:59:40;;;;;;;11.33;5.47;;;;;;;;;;690206;28;1134;-67
2023/11/26 01:00:01;;;;;;;9.90;5.35;;;;;;;;;;689858;28;801;-67
2023/11/26 01:00:21;;;;;;;12.33;5.30;;;;;;;;;;688993;28;1334;-67
2023/11/26 01:00:41;;;;;;;12.37;5.40;;;;;;;;;;689085;28;1516;-67
2023/11/26 01:01:02;;;;;;;11.18;4.97;;;;;;;;;;686838;28;4222;-68
2023/11/26 01:01:22;;;;;;;15.30;5.27;;;;;;;;;;686555;28;956;-67
2023/11/26 01:01:42;;;;;;;12.70;5.13;;;;;;;;;;687882;28;1278;-68
2023/11/26 01:02:07;;;;;;;11.07;5.28;;;;;;;;;;681997;28;1154;-67
2023/11/26 01:02:29;;;;;;;13.25;5.53;;;;;;;;;;684518;28;944;-67
2023/11/26 01:02:50;;;;;;;14.23;5.60;;;;;;;;;;686556;28;937;-67
2023/11/26 01:03:10;;;;;;;12.93;5.93;;;;;;;;;;683213;28;1236;-68
2023/11/26 01:03:31;;;;;;;13.23;6.40;;;;;;;;;;684543;28;1251;-67
2023/11/26 01:03:51;;;;;;;14.43;6.93;;;;;;;;;;685602;28;4266;-67
2023/11/26 01:04:12;;;;;;;13.98;6.97;;;;;;;;;;686313;28;1312;-67
2023/11/26 01:04:33;;;;;;;14.40;7.40;;;;;;;;;;686908;28;1632;-67
2023/11/26 01:04:53;;;;;;;16.50;6.85;;;;;;;;;;687484;28;977;-67
2023/11/26 01:05:14;;;;;;;14.35;6.80;;;;;;;;;;683229;28;1372;-67
2023/11/26 01:05:35;;;;;;;15.63;7.05;;;;;;;;;;684905;28;832;-67
2023/11/26 01:05:55;;;;;;;13.33;7.10;;;;;;;;;;684486;28;904;-67
2023/11/26 01:06:15;;;;;;;15.77;7.27;;;;;;;;;;683752;28;1158;-67
2023/11/26 01:06:35;;;;;;;12.75;6.75;;;;;;;;;;685067;28;1505;-67
2023/11/26 01:06:56;;;;;;;15.57;6.97;;;;;;;;;;684045;28;4316;-67
2023/11/26 01:07:17;;;;;;;14.93;6.47;;;;;;;;;;681264;28;1360;-68
2023/11/26 01:07:37;;;;;;;16.05;6.60;;;;;;;;;;681961;28;943;-67
2023/11/26 01:07:57;;;;;;;13.65;6.55;;;;;;;;;;682802;28;850;-67
2023/11/26 01:08:17;;;;;;;15.17;6.97;;;;;;;;;;683584;28;1303;-67
2023/11/26 01:08:38;;;;;;;13.77;6.43;;;;;;;;;;684736;28;857;-68
2023/11/26 01:08:58;;;;;;;12.13;5.90;;;;;;;;;;687629;28;766;-67
2023/11/26 01:09:18;;;;;;;11.47;6.07;;;;;;;;;;689845;28;1367;-67
2023/11/26 01:09:38;;;;;;;13.97;5.97;;;;;;;;;;690320;28;1509;-67
2023/11/26 01:09:59;;;;;;;15.80;5.97;;;;;;;;;;688920;28;4457;-67
2023/11/26 01:10:21;;;;;;;16.60;6.07;;;;;;;;;;683551;28;1150;-68
2023/11/26 01:10:41;;;;;;;14.48;5.97;;;;;;;;;;684848;28;818;-67
2023/11/26 01:11:05;;;;;;;14.57;6.40;;;;;;;;;;685474;28;1208;-67
2023/11/26 01:11:25;;;;;;;16.02;6.68;;;;;;;;;;685731;28;1074;-67
2023/11/26 01:11:46;;;;;;;14.93;6.10;;;;;;;;;;685548;28;1055;-67
2023/11/26 01:12:07;;;;;;;14.43;5.75;;;;;;;;;;688430;28;1295;-67
2023/11/26 01:12:27;;;;;;;12.77;5.93;;;;;;;;;;688402;28;1019;-68
2023/11/26 01:12:48;;;;;;;12.52;6.20;;;;;;;;;;688956;28;4388;-67
2023/11/26 01:13:08;;;;;;;14.63;5.83;;;;;;;;;;687606;28;1221;-67
2023/11/26 01:13:29;;;;;;;13.82;5.78;;;;;;;;;;684266;28;1297;-68
2023/11/26 01:13:49;;;;;;;14.37;6.30;;;;;;;;;;686374;28;928;-67
2023/11/26 01:14:09;;;;;;;14.97;5.80;;;;;;;;;;686050;28;1287;-67
2023/11/26 01:14:30;;;;;;;14.23;5.90;;;;;;;;;;686033;28;1145;-68
2023/11/26 01:14:51;;;;;;;12.38;6.15;;;;;;;;;;686711;28;1453;-67
2023/11/26 01:15:11;;;;;;;12.60;5.68;;;;;;;;;;689117;28;863;-67
2023/11/26 01:15:37;;;;;;;11.70;5.97;;;;;;;;;;686389;28;1090;-68
2023/11/26 01:15:58;;;;;;;13.40;6.35;;;;;;;;;;685355;28;4472;-67
2023/11/26 01:16:19;;;;;;;13.03;5.77;;;;;;;;;;685703;28;1301;-67
2023/11/26 01:16:39;;;;;;;12.55;5.95;;;;;;;;;;685049;28;3139;-68
2023/11/26 01:16:59;;;;;;;13.33;5.50;;;;;;;;;;687336;28;773;-68
2023/11/26 01:17:20;;;;;;;13.48;5.75;;;;;;;;;;686767;28;1733;-67
2023/11/26 01:17:40;;;;;;;11.87;6.10;;;;;;;;;;687419;28;1973;-68
2023/11/26 01:18:00;;;;;;;11.10;6.07;;;;;;;;;;687217;28;1331;-67
2023/11/26 01:18:20;;;;;;;11.57;5.53;;;;;;;;;;686156;28;1453;-67
2023/11/26 01:18:41;;;;;;;12.27;5.10;;;;;;;;;;684856;28;955;-67
2023/11/26 01:19:01;;;;;;;13.00;5.60;;;;;;;;;;683928;28;4254;-67
2023/11/26 01:19:21;;;;;;;13.80;5.57;;;;;;;;;;684767;28;2299;-67
2023/11/26 01:19:42;;;;;;;12.37;5.37;;;;;;;;;;685583;28;922;-67
2023/11/26 01:20:05;;;;;;;12.97;5.63;;;;;;;;;;685263;28;1451;-67
2023/11/26 01:20:26;;;;;;;9.35;5.47;;;;;;;;;;685539;28;1706;-67
2023/11/26 01:20:46;;;;;;;11.37;5.67;;;;;;;;;;687016;28;1149;-67
2023/11/26 01:21:07;;;;;;;13.20;5.37;;;;;;;;;;684748;28;1165;-67
2023/11/26 01:21:27;;;;;;;13.70;6.03;;;;;;;;;;685340;28;1923;-68
2023/11/26 01:21:47;;;;;;;13.80;5.53;;;;;;;;;;684466;28;4686;-67
2023/11/26 01:22:07;;;;;;;13.43;5.87;;;;;;;;;;682418;28;1436;-67
2023/11/26 01:22:28;;;;;;;13.05;6.25;;;;;;;;;;683753;28;1725;-67
2023/11/26 01:22:48;;;;;;;12.70;6.13;;;;;;;;;;685080;28;1185;-67
2023/11/26 01:23:10;;;;;;;11.88;5.60;;;;;;;;;;687000;28;1477;-67
2023/11/26 01:23:30;;;;;;;12.75;5.20;;;;;;;;;;686894;28;1051;-67
2023/11/26 01:23:53;;;;;;;12.63;5.37;;;;;;;;;;685941;28;1376;-67
2023/11/26 01:24:13;;;;;;;12.85;5.43;;;;;;;;;;685024;28;1388;-67
2023/11/26 01:24:34;;;;;;;11.70;5.57;;;;;;;;;;686166;28;1790;-67
2023/11/26 01:24:54;;;;;;;12.13;5.60;;;;;;;;;;686877;28;4245;-66
2023/11/26 01:25:15;;;;;;;12.23;5.70;;;;;;;;;;686498;28;1141;-68
2023/11/26 01:25:36;;;;;;;14.05;5.68;;;;;;;;;;687355;28;912;-67
2023/11/26 01:25:56;;;;;;;12.23;5.60;;;;;;;;;;688096;28;983;-67
2023/11/26 01:26:16;;;;;;;11.20;5.63;;;;;;;;;;683050;28;1919;-67
2023/11/26 01:26:37;;;;;;;12.33;5.67;;;;;;;;;;683758;28;888;-67
2023/11/26 01:26:58;;;;;;;13.05;5.70;;;;;;;;;;682994;28;1254;-67
2023/11/26 01:27:18;;;;;;;12.98;5.60;;;;;;;;;;684963;28;1918;-67
2023/11/26 01:27:38;;;;;;;13.57;5.50;;;;;;;;;;683854;28;774;-67
2023/11/26 01:27:59;;;;;;;12.48;5.30;;;;;;;;;;682925;28;4560;-67
2023/11/26 01:28:19;;;;;;;11.37;5.40;;;;;;;;;;684242;28;1797;-68
2023/11/26 01:28:39;;;;;;;9.97;5.30;;;;;;;;;;687563;28;1549;-67
2023/11/26 01:29:00;;;;;;;12.93;5.32;;;;;;;;;;687422;28;909;-67
2023/11/26 01:29:20;;;;;;;13.80;5.63;;;;;;;;;;686253;28;1466;-67
2023/11/26 01:29:40;;;;;;;10.88;5.13;;;;;;;;;;684807;28;825;-68
2023/11/26 01:30:01;;;;;;;11.13;5.50;;;;;;;;;;685090;28;939;-67
2023/11/26 01:30:21;;;;;;;12.17;5.43;;;;;;;;;;683796;28;1513;-67
2023/11/26 01:30:41;;;;;;;11.87;5.50;;;;;;;;;;689899;28;1156;-67
2023/11/26 01:31:01;;;;;;;12.60;5.40;;;;;;;;;;689672;28;4218;-67
2023/11/26 01:31:22;;;;;;;11.87;5.13;;;;;;;;;;689001;28;1448;-67
2023/11/26 01:31:42;;;;;;;11.70;4.93;;;;;;;;;;687573;28;1386;-67
2023/11/26 01:32:02;;;;;;;12.73;5.20;;;;;;;;;;687466;28;1064;-67
2023/11/26 01:32:23;;;;;;;11.80;5.30;;;;;;;;;;686836;28;1706;-68
2023/11/26 01:32:43;;;;;;;10.73;5.30;;;;;;;;;;686515;28;975;-67
2023/11/26 01:33:03;;;;;;;12.20;5.20;;;;;;;;;;686898;28;873;-67
2023/11/26 01:33:23;;;;;;;13.63;5.50;;;;;;;;;;683521;28;1802;-67
2023/11/26 01:33:44;;;;;;;12.93;5.75;;;;;;;;;;686321;28;4582;-67
2023/11/26 01:34:05;;;;;;;14.77;5.70;;;;;;;;;;683311;28;1605;-67
2023/11/26 01:34:25;;;;;;;12.63;5.60;;;;;;;;;;683405;28;1207;-67
2023/11/26 01:34:45;;;;;;;13.63;5.73;;;;;;;;;;685858;28;817;-67
2023/11/26 01:35:08;;;;;;;13.60;5.30;;;;;;;;;;683263;28;838;-67
2023/11/26 01:35:28;;;;;;;13.13;5.38;;;;;;;;;;686772;28;1724;-67
2023/11/26 01:35:49;;;;;;;12.98;5.18;;;;;;;;;;685097;28;1034;-67
2023/11/26 01:36:09;;;;;;;14.20;5.20;;;;;;;;;;684917;28;1266;-67
2023/11/26 01:36:30;;;;;;;16.67;5.55;;;;;;;;;;684505;28;1779;-67
2023/11/26 01:36:50;;;;;;;15.17;5.70;;;;;;;;;;684256;28;4342;-67
2023/11/26 01:37:11;;;;;;;11.30;5.50;;;;;;;;;;686025;28;1123;-68
2023/11/26 01:37:33;;;;;;;12.52;5.78;;;;;;;;;;686264;28;1950;-68
2023/11/26 01:37:54;;;;;;;13.35;5.22;;;;;;;;;;685584;28;849;-66
2023/11/26 01:38:15;;;;;;;15.25;5.47;;;;;;;;;;686099;28;1443;-66
2023/11/26 01:38:36;;;;;;;13.53;5.50;;;;;;;;;;684714;28;1190;-67
2023/11/26 01:38:56;;;;;;;12.15;5.40;;;;;;;;;;681682;28;1273;-66
2023/11/26 01:39:17;;;;;;;12.50;5.30;;;;;;;;;;681015;28;1734;-67
2023/11/26 01:39:40;;;;;;;11.80;5.57;;;;;;;;;;684119;28;897;-67
2023/11/26 01:40:00;;;;;;;9.23;5.07;;;;;;;;;;683173;28;4460;-67
2023/11/26 01:40:20;;;;;;;11.07;5.50;;;;;;;;;;685739;28;2651;-67
2023/11/26 01:40:40;;;;;;;12.88;5.43;;;;;;;;;;687954;28;1341;-67
2023/11/26 01:41:01;;;;;;;12.87;5.70;;;;;;;;;;688171;28;1052;-67
2023/11/26 01:41:21;;;;;;;11.10;5.37;;;;;;;;;;685400;28;1967;-67
2023/11/26 01:41:42;;;;;;;12.13;5.30;;;;;;;;;;687766;28;1186;-66
2023/11/26 01:42:02;;;;;;;11.90;5.40;;;;;;;;;;686983;28;999;-66
2023/11/26 01:42:22;;;;;;;13.27;5.78;;;;;;;;;;687422;28;1734;-67
2023/11/26 01:42:44;;;;;;;14.10;5.47;;;;;;;;;;689481;28;4443;-66
2023/11/26 01:43:04;;;;;;;11.85;5.18;;;;;;;;;;689023;28;904;-66
2023/11/26 01:43:25;;;;;;;10.90;5.22;;;;;;;;;;687543;28;2592;-67
2023/11/26 01:43:45;;;;;;;10.73;5.15;;;;;;;;;;688392;28;1282;-66
2023/11/26 01:44:06;;;;;;;9.97;5.00;;;;;;;;;;688976;28;1011;-66
2023/11/26 01:44:26;;;;;;;12.27;5.20;;;;;;;;;;688867;28;1856;-66
2023/11/26 01:44:46;;;;;;;15.93;5.47;;;;;;;;;;691328;28;940;-66
2023/11/26 01:45:07;;;;;;;13.97;5.40;;;;;;;;;;691494;28;873;-67
2023/11/26 01:45:28;;;;;;;13.38;5.32;;;;;;;;;;689109;28;1551;-67
2023/11/26 01:45:52;;;;;;;13.75;5.63;;;;;;;;;;689461;28;4268;-67
2023/11/26 01:46:13;;;;;;;11.45;5.15;;;;;;;;;;689597;28;947;-66
2023/11/26 01:46:33;;;;;;;12.10;5.17;;;;;;;;;;688955;28;2230;-67
2023/11/26 01:46:55;;;;;;;11.95;5.43;;;;;;;;;;690218;28;885;-67
2023/11/26 01:47:15;;;;;;;10.50;5.45;;;;;;;;;;688471;28;1408;-67
2023/11/26 01:47:36;;;;;;;13.27;5.63;;;;;;;;;;685989;28;2269;-68
2023/11/26 01:47:59;;;;;;;11.85;5.47;;;;;;;;;;690436;28;1204;-66
2023/11/26 01:48:20;;;;;;;9.73;5.15;;;;;;;;;;689026;28;1618;-67
2023/11/26 01:48:40;;;;;;;11.23;5.30;;;;;;;;;;686894;28;1283;-67
2023/11/26 01:49:01;;;;;;;13.93;5.57;;;;;;;;;;685615;28;4454;-66
2023/11/26 01:49:21;;;;;;;12.88;5.40;;;;;;;;;;684350;28;1468;-67
2023/11/26 01:49:41;;;;;;;12.27;5.40;;;;;;;;;;687660;28;1244;-67
2023/11/26 01:50:02;;;;;;;13.50;5.50;;;;;;;;;;687769;28;939;-67
2023/11/26 01:50:23;;;;;;;11.43;5.43;;;;;;;;;;681415;28;1858;-67
2023/11/26 01:50:44;;;;;;;11.00;5.15;;;;;;;;;;684769;28;1084;-66
2023/11/26 01:51:05;;;;;;;14.13;5.57;;;;;;;;;;684861;28;1816;-67
2023/11/26 01:51:27;;;;;;;12.60;5.53;;;;;;;;;;682103;28;1437;-67
2023/11/26 01:51:48;;;;;;;11.50;5.40;;;;;;;;;;681189;29;4637;-67
2023/11/26 01:52:10;;;;;;;11.57;5.13;;;;;;;;;;683251;28;882;-66
2023/11/26 01:52:31;;;;;;;11.02;5.10;;;;;;;;;;684740;28;1556;-66
2023/11/26 01:52:53;;;;;;;12.50;5.37;;;;;;;;;;684229;28;1214;-67
2023/11/26 01:53:13;;;;;;;12.85;5.00;;;;;;;;;;685899;28;892;-67
2023/11/26 01:53:35;;;;;;;14.05;5.10;;;;;;;;;;685319;28;2177;-67
2023/11/26 01:53:55;;;;;;;10.60;5.15;;;;;;;;;;686982;28;924;-67
2023/11/26 01:54:16;;;;;;;10.20;4.75;;;;;;;;;;684833;28;1394;-66
2023/11/26 01:54:37;;;;;;;10.80;4.80;;;;;;;;;;683809;28;1723;-67
2023/11/26 01:54:57;;;;;;;11.88;5.03;;;;;;;;;;687299;28;4424;-67
2023/11/26 01:55:18;;;;;;;13.73;5.53;;;;;;;;;;687206;28;2635;-67
2023/11/26 01:55:38;;;;;;;13.43;5.63;;;;;;;;;;688723;28;837;-66
2023/11/26 01:55:59;;;;;;;11.00;4.93;;;;;;;;;;686670;28;1303;-66
2023/11/26 01:56:20;;;;;;;10.30;5.20;;;;;;;;;;685951;28;1816;-67
2023/11/26 01:56:42;;;;;;;9.65;5.13;;;;;;;;;;686763;28;1253;-67
2023/11/26 01:57:04;;;;;;;9.75;5.13;;;;;;;;;;683506;28;952;-67
2023/11/26 01:57:24;;;;;;;10.98;4.85;;;;;;;;;;682126;28;2188;-67
2023/11/26 01:57:45;;;;;;;11.03;5.20;;;;;;;;;;681712;28;4323;-66
2023/11/26 01:58:05;;;;;;;10.00;4.70;;;;;;;;;;682757;28;1182;-67
2023/11/26 01:58:25;;;;;;;10.50;4.78;;;;;;;;;;682334;28;981;-67
2023/11/26 01:58:46;;;;;;;11.17;4.80;;;;;;;;;;682560;28;1349;-67
2023/11/26 01:59:06;;;;;;;10.53;5.07;;;;;;;;;;684798;28;1453;-67
2023/11/26 01:59:27;;;;;;;12.57;5.00;;;;;;;;;;684979;28;2215;-67
2023/11/26 01:59:48;;;;;;;11.75;5.30;;;;;;;;;;681421;28;1277;-67
2023/11/26 02:00:09;;;;;;;11.80;4.78;;;;;;;;;;682001;28;1236;-67
2023/11/26 02:00:32;;;;;;;10.00;4.80;;;;;;;;;;681751;28;2080;-66
2023/11/26 02:00:53;;;;;;;12.03;4.90;;;;;;;;;;684054;28;4268;-66
2023/11/26 02:01:14;;;;;;;10.75;4.68;;;;;;;;;;686335;28;944;-67
2023/11/26 02:01:34;;;;;;;10.05;4.65;;;;;;;;;;686692;28;2317;-67
2023/11/26 02:01:55;;;;;;;10.60;4.80;;;;;;;;;;686209;28;975;-67
2023/11/26 02:02:15;;;;;;;11.37;4.97;;;;;;;;;;687676;28;1140;-67
2023/11/26 02:02:35;;;;;;;10.60;4.77;;;;;;;;;;686766;28;2680;-67
2023/11/26 02:02:56;;;;;;;10.55;4.95;;;;;;;;;;686971;28;1646;-67
2023/11/26 02:03:16;;;;;;;12.83;5.37;;;;;;;;;;687660;28;1489;-67
2023/11/26 02:03:37;;;;;;;12.48;5.03;;;;;;;;;;687899;28;1375;-67
2023/11/26 02:03:58;;;;;;;9.77;4.80;;;;;;;;;;686629;28;4376;-66
2023/11/26 02:04:18;;;;;;;12.20;4.90;;;;;;;;;;683480;28;892;-67
2023/11/26 02:04:38;;;;;;;13.32;5.05;;;;;;;;;;685205;28;1209;-66
2023/11/26 02:04:59;;;;;;;13.82;5.45;;;;;;;;;;687614;28;987;-67
2023/11/26 02:05:19;;;;;;;11.63;5.10;;;;;;;;;;683709;28;1844;-67
2023/11/26 02:05:40;;;;;;;10.03;4.80;;;;;;;;;;681809;28;1333;-67
2023/11/26 02:06:01;;;;;;;11.88;5.38;;;;;;;;;;681796;28;913;-67
2023/11/26 02:06:22;;;;;;;13.07;5.30;;;;;;;;;;679823;28;2540;-66